Time;durP1;ratioP1;P1;durP2;ratioP2;P2;SDS_P1;SDS_P2;PMS_P1;PMS_P2;Temp;Humidity;BMP_temperature;BMP_pressure;BME280_temperature;BME280_humidity;BME280_pressure;Samples;Min_cycle;Max_cycle;Signal;HPM_P1;HPM_P2
2022/04/08 00:01:52;;;;;;;3.22;1.30;;;6.80;99.90;;;5.27;100.00;97589.81;4940220;28;20046;-77
2022/04/08 00:04:19;;;;;;;2.35;1.50;;;6.90;99.90;;;5.26;100.00;97593.34;4931886;28;20038;-77
2022/04/08 00:06:45;;;;;;;5.25;1.20;;;6.80;99.90;;;5.24;100.00;97595.22;4949666;28;20389;-77
2022/04/08 00:09:11;;;;;;;3.58;1.20;;;6.80;99.90;;;5.22;100.00;97602.34;4982318;28;20046;-77
2022/04/08 00:11:37;;;;;;;2.25;1.00;;;6.80;99.90;;;5.20;100.00;97604.22;4957346;28;20038;-76
2022/04/08 00:14:04;;;;;;;5.43;1.30;;;6.80;99.90;;;5.19;100.00;97601.75;4973033;28;20125;-77
2022/04/08 00:16:31;;;;;;;1.75;1.00;;;6.70;99.90;;;5.19;100.00;97613.00;4945229;28;20090;-77
2022/04/08 00:18:57;;;;;;;1.65;1.13;;;6.70;99.90;;;5.19;100.00;97604.38;4956759;28;20057;-77
2022/04/08 00:21:27;;;;;;;3.90;1.48;;;6.70;99.90;;;5.19;100.00;97601.75;4973709;28;20068;-77
2022/04/08 00:23:53;;;;;;;2.97;1.25;;;6.70;99.90;;;5.21;100.00;97618.94;4957522;28;20042;-76
2022/04/08 00:26:19;;;;;;;3.78;1.33;;;6.70;99.90;;;5.19;100.00;97613.00;4944396;28;20042;-76
2022/04/08 00:28:45;;;;;;;4.10;1.27;;;6.80;99.90;;;5.21;100.00;97621.56;4950458;28;20053;-77
2022/04/08 00:31:14;;;;;;;3.10;1.50;;;6.70;99.90;;;5.22;100.00;97625.00;4954637;28;20670;-77
2022/04/08 00:33:40;;;;;;;3.85;1.30;;;6.70;99.90;;;5.22;100.00;97627.59;4977872;28;20042;-76
2022/04/08 00:36:06;;;;;;;4.35;1.55;;;6.70;99.90;;;5.21;100.00;97632.00;4933545;28;20129;-77
2022/04/08 00:38:32;;;;;;;4.32;1.50;;;6.70;99.90;;;5.19;100.00;97644.31;4945032;28;20038;-77
2022/04/08 00:40:59;;;;;;;13.60;2.25;;;6.70;99.90;;;5.16;100.00;97644.53;4959801;28;20435;-77
2022/04/08 00:43:38;;;;;;;5.00;1.70;;;6.70;99.90;;;5.18;100.00;97649.63;4956261;28;20102;-77
2022/04/08 00:46:11;;;;;;;8.43;1.50;;;6.70;99.90;;;5.13;100.00;97644.75;4955405;28;25607;-77
2022/04/08 00:48:37;;;;;;;7.18;1.88;;;6.70;99.90;;;5.15;100.00;97650.69;4964080;28;20417;-77
2022/04/08 00:51:06;;;;;;;7.63;1.70;;;6.70;99.90;;;5.17;100.00;97661.84;4946035;28;20019;-77
2022/04/08 00:53:35;;;;;;;1.85;1.38;;;6.70;99.90;;;5.18;100.00;97675.72;4947113;28;20031;-78
2022/04/08 00:56:04;;;;;;;4.18;1.60;;;6.70;99.90;;;5.14;100.00;97682.97;4963096;28;20069;-77
2022/04/08 00:58:31;;;;;;;3.00;1.30;;;6.60;99.90;;;5.12;100.00;97695.28;4938614;28;20078;-78
2022/04/08 01:00:58;;;;;;;1.52;0.80;;;6.60;99.90;;;5.02;100.00;97715.13;4938775;28;20081;-77
2022/04/08 01:05:49;;;;;;;2.17;0.90;;;6.40;99.90;;;4.72;100.00;97732.84;4952346;28;20487;-78
2022/04/08 01:08:18;;;;;;;3.47;0.90;;;6.30;99.90;;;4.66;100.00;97750.69;4952811;28;20365;-78
2022/04/08 01:10:44;;;;;;;2.10;0.82;;;6.20;99.90;;;4.54;100.00;97770.63;4958442;28;20027;-78
2022/04/08 01:13:10;;;;;;;3.13;0.77;;;6.10;99.90;;;4.30;100.00;97781.78;4954987;28;20031;-78
2022/04/08 01:15:36;;;;;;;3.60;1.08;;;5.90;99.90;;;4.17;100.00;97777.47;4974874;28;20054;-79
2022/04/08 01:18:05;;;;;;;6.13;1.20;;;5.90;99.90;;;4.11;100.00;97803.00;4972390;28;20037;-78
2022/04/08 01:20:33;;;;;;;2.78;0.82;;;5.70;99.90;;;3.95;100.00;97804.13;4978962;28;20031;-78
2022/04/08 01:22:59;;;;;;;2.63;1.02;;;5.60;99.90;;;3.88;100.00;97820.16;4938324;28;20081;-77
2022/04/08 01:25:25;;;;;;;5.40;0.75;;;5.60;99.90;;;3.80;100.00;97814.63;4954486;28;20051;-77
2022/04/08 01:27:51;;;;;;;14.32;1.10;;;5.50;99.90;;;3.76;100.00;97828.78;4963666;28;20050;-77
2022/04/08 01:30:17;;;;;;;6.97;1.05;;;5.40;99.90;;;3.74;100.00;97833.25;4957640;28;20023;-77
2022/04/08 01:32:44;;;;;;;10.65;1.02;;;5.40;99.90;;;3.73;100.00;97847.19;4951702;28;20038;-77
2022/04/08 01:35:17;;;;;;;3.60;1.00;;;5.30;99.90;;;3.68;100.00;97862.25;4946154;28;20019;-77
2022/04/08 01:37:44;;;;;;;4.43;1.17;;;5.40;99.90;;;3.70;100.00;97868.22;4948609;28;20034;-77
2022/04/08 01:40:11;;;;;;;2.67;0.82;;;5.40;99.90;;;3.72;100.00;97884.56;4967908;28;20039;-77
2022/04/08 01:42:37;;;;;;;2.75;0.98;;;5.30;99.90;;;3.68;100.00;97889.13;4948766;28;20523;-78
2022/04/08 01:45:03;;;;;;;1.80;0.52;;;5.40;99.90;;;3.69;100.00;97889.94;4940229;28;20086;-77
2022/04/08 01:47:32;;;;;;;8.90;1.00;;;5.30;99.90;;;3.69;100.00;97903.81;4930846;28;20039;-77
2022/04/08 01:49:58;;;;;;;4.55;0.75;;;5.30;99.90;;;3.57;100.00;97906.34;4960274;28;20503;-76
2022/04/08 01:52:24;;;;;;;4.25;0.60;;;5.20;99.90;;;3.60;100.00;97921.75;4959433;28;20109;-77
2022/04/08 01:54:50;;;;;;;8.38;0.82;;;5.20;99.90;;;3.64;100.00;97918.03;4968957;28;20030;-77
2022/04/08 01:57:18;;;;;;;2.50;0.55;;;5.20;99.90;;;3.52;100.00;97924.00;4944536;28;20026;-77
2022/04/08 01:59:47;;;;;;;4.38;0.68;;;5.10;99.90;;;3.40;100.00;97930.81;4954052;28;20035;-77
2022/04/08 02:02:13;;;;;;;5.03;0.80;;;5.00;99.90;;;3.33;100.00;97939.94;4918479;28;20026;-77
2022/04/08 02:04:39;;;;;;;5.78;0.80;;;5.00;99.90;;;3.29;100.00;97936.69;4941531;28;20052;-78
2022/04/08 02:07:06;;;;;;;2.17;0.55;;;4.90;99.90;;;3.22;100.00;97948.41;4955137;28;20023;-75
2022/04/08 02:09:33;;;;;;;6.05;0.75;;;4.80;99.90;;;3.08;100.00;97957.00;4963044;28;20059;-78
2022/04/08 02:12:00;;;;;;;5.55;0.82;;;4.80;99.90;;;3.06;100.00;97964.06;4959591;28;20019;-77
2022/04/08 02:14:26;;;;;;;7.13;1.45;;;4.70;99.90;;;2.98;100.00;97979.28;4947581;28;20392;-78
2022/04/08 02:16:51;;;;;;;1.90;0.60;;;4.70;99.90;;;2.90;100.00;97971.13;4959285;28;20026;-77
2022/04/08 02:19:17;;;;;;;3.13;0.40;;;4.60;99.90;;;2.81;100.00;97977.69;4978083;28;20522;-77
2022/04/08 02:21:44;;;;;;;4.80;0.50;;;4.50;99.90;;;2.77;100.00;97987.44;4964884;28;20039;-77
2022/04/08 02:24:13;;;;;;;9.23;0.85;;;4.50;99.90;;;2.77;100.00;98000.44;4937032;28;20263;-77
2022/04/08 02:26:39;;;;;;;9.63;1.05;;;4.50;99.90;;;2.87;100.00;98005.91;4974895;28;20031;-77
2022/04/08 02:29:05;;;;;;;4.95;0.65;;;4.60;99.90;;;2.93;100.00;98012.50;4967814;28;20085;-77
2022/04/08 02:31:31;;;;;;;6.57;0.90;;;4.60;99.90;;;3.05;100.00;98020.44;4903912;28;20030;-77
2022/04/08 02:33:57;;;;;;;4.53;0.75;;;4.60;99.90;;;3.08;100.00;98035.00;4946267;28;20538;-76
2022/04/08 02:36:24;;;;;;;4.88;0.90;;;4.70;99.90;;;3.15;100.00;98041.50;4911600;28;20031;-78
2022/04/08 02:38:50;;;;;;;3.97;0.90;;;4.80;99.90;;;3.18;100.00;98050.91;4964649;28;20034;-77
2022/04/08 02:41:16;;;;;;;3.30;0.50;;;4.80;99.90;;;3.25;100.00;98060.03;4957109;28;20550;-77
2022/04/08 02:43:51;;;;;;;6.63;0.93;;;4.80;99.90;;;3.28;100.00;98072.81;4980206;22;20035;-75
2022/04/08 02:46:17;;;;;;;7.93;1.05;;;4.90;99.90;;;3.32;100.00;98074.31;4945849;28;20115;-77
2022/04/08 02:48:43;;;;;;;3.33;0.60;;;4.90;99.90;;;3.37;100.00;98080.09;4930077;28;20057;-76
2022/04/08 02:51:12;;;;;;;7.38;0.93;;;5.00;99.90;;;3.43;100.00;98089.28;4886407;28;20062;-78
2022/04/08 02:53:38;;;;;;;4.35;0.75;;;5.00;99.90;;;3.40;100.00;98087.72;4910502;28;20022;-78
2022/04/08 02:56:04;;;;;;;9.52;1.30;;;5.00;99.90;;;3.42;100.00;98104.06;4971629;28;20134;-77
2022/04/08 02:58:30;;;;;;;10.23;1.02;;;5.00;99.90;;;3.49;100.00;98110.56;4960770;28;20039;-77
2022/04/08 03:00:59;;;;;;;4.45;0.63;;;5.10;99.90;;;3.53;100.00;98123.41;4933069;28;20132;-77
2022/04/08 03:03:28;;;;;;;6.55;1.10;;;5.10;99.90;;;3.55;99.53;98125.00;4960574;28;20057;-77
2022/04/08 03:05:55;;;;;;;7.90;1.02;;;5.10;99.90;;;3.42;99.09;98121.44;4907636;28;20026;-77
2022/04/08 03:08:22;;;;;;;5.03;0.90;;;5.00;99.90;;;3.27;98.80;98128.38;4948334;28;20556;-77
2022/04/08 03:10:48;;;;;;;6.88;0.90;;;4.90;99.90;;;3.15;99.08;98135.13;4937215;28;20034;-77
2022/04/08 03:13:14;;;;;;;6.70;0.88;;;4.80;99.90;;;3.11;99.18;98138.00;4955986;28;20514;-76
2022/04/08 03:15:40;;;;;;;6.50;1.13;;;4.80;99.90;;;3.05;99.08;98142.63;4987672;28;20027;-76
2022/04/08 03:18:06;;;;;;;9.25;0.90;;;4.70;99.90;;;3.11;99.45;98151.00;4943927;28;20382;-77
2022/04/08 03:20:35;;;;;;;6.07;0.90;;;4.80;99.90;;;3.19;99.29;98151.38;4919826;28;20077;-77
2022/04/08 03:23:01;;;;;;;6.15;0.90;;;4.80;99.90;;;3.28;99.55;98161.25;4903760;28;22549;-77
2022/04/08 03:25:27;;;;;;;9.27;1.05;;;4.90;99.90;;;3.39;99.62;98164.09;4886635;28;21099;-77
2022/04/08 03:27:53;;;;;;;5.68;1.05;;;5.00;99.90;;;3.48;99.29;98171.34;4937073;28;20056;-77
2022/04/08 03:30:19;;;;;;;7.45;1.10;;;5.00;99.90;;;3.55;99.00;98178.81;4961869;28;20038;-77
2022/04/08 03:32:45;;;;;;;8.20;1.33;;;5.10;99.90;;;3.57;98.95;98174.34;4946291;28;20046;-77
2022/04/08 03:35:13;;;;;;;6.28;0.98;;;5.10;99.90;;;3.65;98.75;98185.13;4933477;28;20337;-77
2022/04/08 03:37:39;;;;;;;12.60;1.70;;;5.10;99.90;;;3.67;98.98;98191.94;4902262;28;20042;-77
2022/04/08 03:40:06;;;;;;;7.30;1.20;;;5.20;99.90;;;3.66;98.87;98197.22;4942193;28;20030;-77
2022/04/08 03:42:32;;;;;;;5.88;1.00;;;5.20;99.90;;;3.66;98.42;98210.25;4965432;28;20553;-77
2022/04/08 03:44:57;;;;;;;7.10;0.88;;;5.20;99.90;;;3.64;98.51;98210.31;4931139;28;20058;-78
2022/04/08 03:47:23;;;;;;;17.25;1.40;;;5.20;99.90;;;3.66;98.45;98211.06;4949236;28;20138;-77
2022/04/08 03:49:57;;;;;;;6.15;1.10;;;5.30;99.90;;;3.72;97.91;98212.47;4916416;28;20097;-77
2022/04/08 03:52:24;;;;;;;4.57;0.82;;;5.30;99.90;;;3.72;98.28;98220.28;4931882;28;20104;-78
2022/04/08 03:54:50;;;;;;;16.23;1.35;;;5.30;99.90;;;3.72;98.11;98217.69;4932024;28;20026;-77
2022/04/08 03:57:16;;;;;;;8.38;1.35;;;5.30;99.90;;;3.76;98.16;98233.94;4953988;28;20033;-76
2022/04/08 03:59:50;;;;;;;4.20;0.77;;;5.30;99.90;;;3.76;97.92;98229.59;4955239;28;20031;-77
2022/04/08 04:02:16;;;;;;;10.93;1.00;;;5.40;99.90;;;3.80;97.74;98230.25;4915223;28;20018;-78
2022/04/08 04:04:41;;;;;;;14.80;1.63;;;5.30;99.90;;;3.80;97.96;98246.72;4907050;28;20057;-77
2022/04/08 04:07:08;;;;;;;4.72;0.90;;;5.30;99.90;;;3.73;97.28;98234.97;4920616;28;20173;-77
2022/04/08 04:09:39;;;;;;;9.55;1.27;;;5.30;99.90;;;3.70;97.53;98251.59;4918873;28;20030;-77
2022/04/08 04:12:09;;;;;;;7.57;1.35;;;5.20;99.90;;;3.66;97.87;98250.09;4904612;28;20465;-77
2022/04/08 04:14:34;;;;;;;10.73;1.30;;;5.20;99.90;;;3.67;97.69;98264.81;4957310;28;20045;-77
2022/04/08 04:17:01;;;;;;;11.77;1.08;;;5.30;99.90;;;3.69;97.63;98273.38;4959796;28;20031;-77
2022/04/08 04:19:27;;;;;;;11.35;1.67;;;5.30;99.90;;;3.65;97.71;98271.00;4922117;28;20049;-77
2022/04/08 04:21:53;;;;;;;9.05;1.50;;;5.20;99.90;;;3.64;97.86;98284.97;4912843;28;20513;-77
2022/04/08 04:24:20;;;;;;;9.88;1.45;;;5.20;99.90;;;3.65;98.21;98290.09;4924146;28;20041;-77
2022/04/08 04:26:46;;;;;;;10.52;1.48;;;5.20;99.90;;;3.65;98.13;98299.63;4907688;28;20028;-77
2022/04/08 04:29:12;;;;;;;6.75;0.93;;;6.10;99.90;;;3.66;98.02;98298.72;4914865;28;20035;-77
2022/04/08 04:31:39;;;;;;;13.90;1.45;;;5.20;99.90;;;3.63;97.85;98311.91;4940088;28;20057;-77
2022/04/08 04:34:05;;;;;;;10.65;1.50;;;5.20;99.90;;;3.66;97.82;98311.72;4941013;28;20033;-77
2022/04/08 04:36:39;;;;;;;11.45;1.50;;;5.20;99.90;;;3.66;97.74;98312.56;4923571;28;20031;-77
2022/04/08 04:39:05;;;;;;;10.27;1.35;;;5.20;99.90;;;3.67;97.65;98323.81;4932703;28;20041;-77
2022/04/08 04:41:32;;;;;;;13.25;1.40;;;5.20;99.90;;;3.67;97.40;98329.00;4934752;28;20419;-77
2022/04/08 04:44:03;;;;;;;8.65;1.00;;;5.20;99.90;;;3.65;96.84;98330.84;4929855;28;20436;-77
2022/04/08 04:46:29;;;;;;;19.42;1.40;;;5.20;99.90;;;3.66;96.13;98329.94;4904582;28;20666;-77
2022/04/08 04:48:55;;;;;;;6.85;1.10;;;5.20;99.90;;;3.68;95.37;98338.50;4918015;28;20502;-77
2022/04/08 04:51:21;;;;;;;16.75;1.35;;;5.20;99.90;;;3.73;95.30;98338.25;4921448;28;20112;-77
2022/04/08 04:53:47;;;;;;;10.57;1.48;;;5.20;99.90;;;3.77;95.38;98342.34;4934662;28;20037;-77
2022/04/08 04:56:13;;;;;;;8.80;1.83;;;5.20;99.90;;;3.80;94.31;98350.84;4963767;28;20038;-77
2022/04/08 04:58:39;;;;;;;18.67;1.20;;;5.20;99.90;;;3.80;94.35;98335.22;4939397;28;20105;-78
2022/04/08 05:01:05;;;;;;;13.10;1.70;;;5.30;99.90;;;3.86;93.66;98358.28;4928808;28;20535;-77
2022/04/08 05:03:38;;;;;;;13.15;1.92;;;5.30;99.90;;;3.87;92.65;98357.38;4916061;28;20046;-78
2022/04/08 05:06:04;;;;;;;8.65;1.13;;;5.30;99.90;;;3.90;92.07;98370.19;4952480;28;20023;-77
2022/04/08 05:08:31;;;;;;;13.70;1.38;;;5.40;99.90;;;3.97;90.90;98378.50;4995354;28;20030;-77
2022/04/08 05:10:58;;;;;;;17.58;1.92;;;5.40;99.90;;;4.11;90.31;98388.13;4943770;28;20050;-77
2022/04/08 05:13:28;;;;;;;20.85;1.95;;;5.60;99.90;;;4.30;89.30;98388.75;4946524;28;20071;-77
2022/04/08 05:15:54;;;;;;;10.98;1.60;;;5.70;99.90;;;4.65;86.43;98398.03;4925843;28;20034;-77
2022/04/08 05:18:20;;;;;;;11.32;1.73;;;5.80;99.90;;;4.57;84.73;98406.28;4922926;28;20513;-78
2022/04/08 05:20:46;;;;;;;11.20;1.75;;;5.80;99.90;;;4.44;84.00;98400.13;4873325;28;20046;-78
2022/04/08 05:23:12;;;;;;;11.10;1.88;;;5.90;99.90;;;4.48;83.10;98407.69;4895719;28;20037;-77
2022/04/08 05:25:38;;;;;;;16.25;1.65;;;5.90;99.90;;;4.54;82.98;98416.09;4948621;28;20433;-77
2022/04/08 05:28:11;;;;;;;13.77;1.65;;;5.80;99.90;;;4.28;81.43;98423.63;4935989;28;20042;-78
2022/04/08 05:30:37;;;;;;;14.52;2.00;;;5.70;99.90;;;4.20;80.86;98424.06;4930470;28;20036;-77
2022/04/08 05:33:03;;;;;;;21.75;2.33;;;5.70;99.90;;;4.24;80.87;98436.00;4958429;28;20999;-78
2022/04/08 05:35:30;;;;;;;12.13;2.25;;;5.80;99.90;;;4.50;79.73;98444.06;4964470;28;20093;-77
2022/04/08 05:37:55;;;;;;;19.38;2.80;;;5.80;99.90;;;4.47;79.35;98452.06;4978697;28;20030;-77
2022/04/08 05:40:24;;;;;;;10.77;2.03;;;5.80;99.90;;;4.59;79.01;98456.56;4961752;28;20060;-78
2022/04/08 05:42:51;;;;;;;24.95;1.98;;;6.10;99.90;;;6.38;74.63;98469.94;4871278;28;20108;-77
2022/04/08 05:45:21;;;;;;;9.02;1.08;;;6.40;99.90;;;6.02;71.11;98442.63;4914880;28;20042;-78
2022/04/08 05:47:54;;;;;;;17.55;2.13;;;6.50;99.90;;;6.03;71.51;98485.28;4964049;28;20531;-78
2022/04/08 05:50:21;;;;;;;9.38;1.75;;;6.60;99.90;;;5.64;71.33;98492.06;4961175;28;20111;-78
2022/04/08 05:52:48;;;;;;;20.50;2.15;;;6.70;99.90;;;6.34;70.55;98505.88;4948227;28;20029;-78
2022/04/08 05:55:22;;;;;;;13.40;1.83;;;6.70;99.90;;;5.98;69.97;98503.00;4939891;28;20394;-79
2022/04/08 05:57:48;;;;;;;23.15;2.45;;;7.30;99.90;;;10.07;62.48;98501.78;4940829;28;20502;-78
2022/04/08 06:00:17;;;;;;;19.25;2.78;;;8.20;99.90;;;11.49;54.84;98505.94;4907088;28;20033;-78
2022/04/08 06:02:45;;;;;;;17.33;2.15;;;8.80;99.90;;;10.38;54.14;98501.13;4903916;28;20102;-78
2022/04/08 06:05:12;;;;;;;19.70;2.22;;;9.20;99.90;;;10.36;54.67;98511.75;4946322;28;20015;-78
2022/04/08 06:07:46;;;;;;;21.02;2.33;;;9.20;99.90;;;9.07;55.49;98516.59;4934875;28;20023;-78
2022/04/08 06:10:14;;;;;;;19.10;2.33;;;8.90;99.90;;;8.87;57.21;98520.69;4950899;28;20031;-77
2022/04/08 06:12:40;;;;;;;19.88;2.15;;;8.90;99.90;;;9.59;55.00;98538.84;4940927;28;20033;-78
2022/04/08 06:15:07;;;;;;;12.40;1.90;;;9.00;99.90;;;9.91;54.05;98546.00;4937190;28;20380;-78
2022/04/08 06:17:38;;;;;;;19.17;2.10;;;9.00;99.90;;;8.82;55.20;98539.41;4930919;28;20034;-78
2022/04/08 06:20:09;;;;;;;20.63;2.20;;;8.90;99.90;;;9.08;55.60;98555.00;4931862;28;20026;-77
2022/04/08 06:22:40;;;;;;;21.55;2.85;;;8.90;99.90;;;8.92;55.36;98555.31;4900017;28;20575;-77
2022/04/08 06:25:14;;;;;;;21.50;2.80;;;8.80;99.90;;;8.43;56.32;98558.06;4935577;28;20046;-76
2022/04/08 06:27:40;;;;;;;20.50;2.92;;;8.90;99.90;;;8.93;56.66;98567.47;4933296;28;20026;-77
2022/04/08 06:30:14;;;;;;;22.60;3.15;;;9.20;99.90;;;11.64;54.63;98590.72;4926451;28;20596;-79
2022/04/08 06:32:45;;;;;;;21.65;2.72;;;9.80;99.90;;;11.00;52.05;98582.00;4874645;28;20113;-79
2022/04/08 06:35:12;;;;;;;28.58;2.70;;;10.20;99.90;;;11.53;52.50;98596.91;4938132;28;20038;-79
2022/04/08 06:37:38;;;;;;;17.20;2.55;;;10.50;99.90;;;11.71;51.75;98613.00;4901894;28;20113;-79
2022/04/08 06:40:09;;;;;;;24.70;3.60;;;10.70;99.90;;;11.49;51.20;98620.06;4929220;28;20026;-78
2022/04/08 06:42:36;;;;;;;22.88;2.72;;;10.80;99.90;;;11.15;50.62;98611.50;4940047;28;20085;-79
2022/04/08 06:45:05;;;;;;;17.60;2.72;;;10.90;99.90;;;11.27;51.11;98623.69;4941112;28;20039;-79
2022/04/08 06:47:31;;;;;;;22.60;3.50;;;11.00;99.90;;;11.57;50.90;98635.22;4936665;28;20113;-77
2022/04/08 06:50:01;;;;;;;24.90;3.45;;;11.20;99.90;;;11.54;50.71;98624.97;4948668;28;20036;-79
2022/04/08 06:52:26;;;;;;;19.17;1.85;;;11.20;99.90;;;10.52;50.01;98634.19;4933544;28;20688;-79
2022/04/08 06:54:52;;;;;;;20.08;2.72;;;10.70;99.90;;;9.48;52.30;98630.78;4927713;28;20038;-76
2022/04/08 06:57:18;;;;;;;20.45;2.60;;;10.10;99.90;;;8.71;54.16;98641.69;4897425;28;20078;-77
2022/04/08 06:59:44;;;;;;;16.80;2.30;;;10.00;99.90;;;9.21;55.95;98659.94;4903708;28;20386;-77
2022/04/08 07:02:10;;;;;;;19.88;2.58;;;9.80;99.90;;;8.68;55.02;98651.56;4947237;28;20538;-77
2022/04/08 07:04:44;;;;;;;17.80;2.38;;;9.60;99.90;;;8.25;56.33;98655.44;4892966;28;20049;-77
2022/04/08 07:07:09;;;;;;;16.48;2.78;;;9.40;99.90;;;8.18;57.12;98657.59;4933374;28;20038;-77
2022/04/08 07:09:36;;;;;;;21.80;2.80;;;9.30;99.90;;;8.72;55.65;98669.59;4941970;28;20030;-77
2022/04/08 07:12:13;;;;;;;;;;;;;;;;;;;;;
2022/04/08 07:14:39;;;;;;;24.30;2.70;;;9.60;99.90;;;9.38;53.90;98677.09;4945117;28;20390;-77
2022/04/08 07:17:05;;;;;;;23.50;2.50;;;9.80;99.90;;;9.93;52.26;98691.28;4938248;28;20026;-77
2022/04/08 07:19:33;;;;;;;24.00;2.83;;;10.60;99.90;;;13.09;48.14;98701.31;4952157;28;20129;-77
2022/04/08 07:22:02;;;;;;;19.08;2.28;;;12.00;99.90;;;15.10;43.76;98702.94;4893591;28;20105;-77
2022/04/08 07:24:28;;;;;;;20.75;2.83;;;13.50;99.90;;;17.05;40.64;98732.03;4926972;28;20136;-78
2022/04/08 07:26:55;;;;;;;25.63;2.78;;;15.00;99.70;;;18.16;37.08;98747.63;4950884;28;20109;-77
2022/04/08 07:29:21;;;;;;;16.80;2.53;;;16.30;98.90;;;19.36;36.18;98742.22;4926509;28;20038;-77
2022/04/08 07:31:47;;;;;;;24.77;3.13;;;17.30;95.60;;;19.23;36.07;98756.13;4945991;28;20026;-77
2022/04/08 07:34:13;;;;;;;16.83;2.33;;;18.00;93.60;;;19.41;36.33;98774.53;4948309;28;20141;-78
2022/04/08 07:36:41;;;;;;;21.50;3.13;;;18.20;92.80;;;18.97;37.07;98767.91;4951504;28;20088;-77
2022/04/08 07:39:07;;;;;;;17.63;2.90;;;18.50;92.70;;;19.54;35.90;98779.31;4940580;28;20978;-78
2022/04/08 07:41:33;;;;;;;17.17;2.40;;;18.80;91.80;;;19.95;36.09;98792.41;4939221;28;20022;-77
2022/04/08 07:43:59;;;;;;;15.00;2.65;;;19.00;90.80;;;19.11;35.71;98789.53;4949873;28;20068;-78
2022/04/08 07:46:25;;;;;;;15.48;2.75;;;18.50;89.50;;;16.87;38.13;98788.78;4950434;28;20045;-78
2022/04/08 07:48:52;;;;;;;16.70;2.70;;;17.80;90.30;;;16.23;40.15;98777.56;4913859;28;20023;-77
2022/04/08 07:51:20;;;;;;;23.95;2.95;;;17.10;91.10;;;15.97;40.74;98788.16;4929044;28;20057;-78
2022/04/08 07:53:46;;;;;;;18.27;3.08;;;16.70;92.10;;;16.12;41.22;98785.78;4927995;28;20531;-78
2022/04/08 07:56:12;;;;;;;18.77;2.50;;;16.60;92.20;;;15.82;40.84;98792.34;4920048;28;20158;-78
2022/04/08 07:58:38;;;;;;;22.27;2.75;;;16.30;91.70;;;15.21;41.01;98802.63;4925865;28;20065;-78
2022/04/08 08:01:05;;;;;;;16.27;2.38;;;15.80;92.00;;;14.13;43.08;98791.53;4934545;28;20085;-77
2022/04/08 08:03:34;;;;;;;16.23;2.58;;;15.10;92.70;;;13.71;44.56;98807.69;4915257;28;20054;-76
2022/04/08 08:06:03;;;;;;;21.05;3.00;;;14.40;93.30;;;12.99;44.71;98800.00;4863191;28;20395;-76
2022/04/08 08:08:30;;;;;;;25.65;2.58;;;14.40;94.60;;;13.75;44.76;98809.06;4911337;28;20032;-77
2022/04/08 08:10:56;;;;;;;22.30;2.70;;;14.60;95.10;;;14.33;44.39;98812.66;4940280;28;20472;-77
2022/04/08 08:13:22;;;;;;;23.42;2.70;;;15.00;94.80;;;14.73;43.21;98817.75;4975758;28;20037;-76
2022/04/08 08:15:48;;;;;;;22.80;3.53;;;15.20;94.10;;;14.22;43.30;98824.25;4934575;28;20375;-77
2022/04/08 08:18:18;;;;;;;22.58;2.90;;;15.00;93.10;;;14.21;44.32;98825.25;4955609;28;20109;-77
2022/04/08 08:20:44;;;;;;;21.25;3.83;;;14.70;94.50;;;13.17;45.50;98826.59;4930178;28;20418;-76
2022/04/08 08:23:11;;;;;;;17.65;2.78;;;14.20;95.60;;;12.57;47.29;98827.34;4968483;28;20046;-77
2022/04/08 08:25:37;;;;;;;14.20;2.88;;;13.60;95.40;;;11.74;48.66;98821.00;4947332;28;20038;-76
2022/04/08 08:28:03;;;;;;;19.23;2.70;;;13.20;96.30;;;11.42;49.95;98827.06;4927371;28;20114;-77
2022/04/08 08:30:32;;;;;;;14.40;2.25;;;12.70;96.30;;;11.47;49.38;98826.75;4910988;28;20518;-77
2022/04/08 08:32:59;;;;;;;19.70;2.55;;;12.50;96.80;;;11.24;49.66;98832.03;4936238;28;20156;-77
2022/04/08 08:35:27;;;;;;;20.83;2.97;;;12.30;96.70;;;10.72;50.55;98822.97;4939987;28;20037;-77
2022/04/08 08:37:53;;;;;;;22.30;3.05;;;12.10;97.80;;;11.09;50.75;98836.72;4947700;28;20050;-76
2022/04/08 08:40:23;;;;;;;20.63;2.83;;;12.40;97.60;;;12.19;48.63;98847.22;4934334;28;20058;-77
2022/04/08 08:42:49;;;;;;;15.30;2.50;;;12.70;97.00;;;11.80;47.82;98846.03;4961022;28;20069;-77
2022/04/08 08:45:17;;;;;;;16.45;2.60;;;13.00;97.00;;;12.84;47.65;98860.28;4956942;28;20047;-77
2022/04/08 08:47:52;;;;;;;18.60;2.50;;;13.00;96.20;;;11.95;47.25;98863.28;4945955;28;20042;-77
2022/04/08 08:50:18;;;;;;;25.45;3.08;;;12.80;96.10;;;11.25;48.21;98852.16;4938588;28;20050;-78
2022/04/08 08:52:50;;;;;;;13.55;2.28;;;12.80;97.30;;;11.94;48.03;98866.88;4919402;28;20113;-78
2022/04/08 08:55:20;;;;;;;20.58;3.15;;;12.60;97.00;;;11.48;48.33;98862.66;4929578;28;20506;-77
2022/04/08 08:57:47;;;;;;;17.70;2.13;;;12.60;96.60;;;11.67;48.11;98876.03;4914596;28;20030;-77
2022/04/08 09:00:18;;;;;;;20.48;2.97;;;12.50;96.90;;;11.15;48.75;98866.19;4920735;28;20042;-77
2022/04/08 09:02:57;;;;;;;13.18;1.67;;;12.30;97.10;;;11.25;48.31;98881.16;4955061;28;20088;-78
2022/04/08 09:05:25;;;;;;;16.65;2.63;;;12.50;97.40;;;11.89;48.18;98876.97;4934131;28;20473;-78
2022/04/08 09:08:06;;;;;;;17.98;2.28;;;12.60;96.20;;;11.75;47.24;98885.97;4967645;28;20019;-77
2022/04/08 09:10:48;;;;;;;14.63;2.33;;;12.40;96.00;;;10.98;47.82;98896.47;4926763;28;20085;-77
2022/04/08 09:13:23;;;;;;;17.55;2.58;;;12.10;96.60;;;10.59;49.65;98885.41;4915017;28;20033;-77
2022/04/08 09:16:01;;;;;;;23.17;2.63;;;11.70;97.50;;;10.34;50.50;98889.88;4939585;28;20023;-76
2022/04/08 09:18:34;;;;;;;17.00;2.60;;;11.60;98.20;;;10.23;51.28;98890.63;4938546;28;20258;-77
2022/04/08 09:21:01;;;;;;;23.20;3.10;;;11.40;97.80;;;10.01;51.29;98883.50;4917586;28;20125;-77
2022/04/08 09:23:33;;;;;;;15.05;2.38;;;11.30;97.80;;;9.93;51.64;98890.28;4927596;28;20038;-76
2022/04/08 09:26:07;;;;;;;27.35;2.55;;;11.20;97.40;;;9.86;50.48;98897.78;4971263;23;21092;-77
2022/04/08 09:28:40;;;;;;;17.60;2.47;;;11.20;99.00;;;10.28;51.28;98898.22;4983584;28;20113;-77
2022/04/08 09:31:18;;;;;;;18.17;2.53;;;11.40;99.70;;;10.57;51.79;98892.56;4981792;28;20038;-77
2022/04/08 09:33:53;;;;;;;16.20;2.00;;;11.40;98.00;;;10.21;50.11;98902.22;4976366;28;20145;-78
2022/04/08 09:36:35;;;;;;;15.18;2.22;;;11.40;99.30;;;10.06;52.09;98910.31;4955161;28;20045;-77
2022/04/08 09:39:10;;;;;;;18.23;2.55;;;11.20;98.50;;;9.91;51.64;98898.25;4954958;28;20030;-77
2022/04/08 09:41:53;;;;;;;15.30;2.35;;;11.30;99.50;;;10.27;51.99;98899.16;4954891;28;20258;-77
2022/04/08 09:44:24;;;;;;;17.05;2.50;;;11.40;98.60;;;10.52;51.09;98902.59;4919776;28;20096;-77
2022/04/08 09:46:51;;;;;;;16.58;2.47;;;11.60;99.90;;;10.84;52.51;98906.28;4938715;28;20034;-77
2022/04/08 09:49:17;;;;;;;16.35;2.38;;;11.90;98.60;;;11.11;50.40;98901.63;4939091;28;22684;-77
2022/04/08 09:51:54;;;;;;;15.40;2.45;;;12.10;97.80;;;11.20;49.71;98899.09;4944762;28;20035;-78
2022/04/08 09:54:27;;;;;;;11.00;2.00;;;12.10;98.30;;;11.15;49.49;98919.69;4943908;28;20065;-77
2022/04/08 09:56:58;;;;;;;11.85;1.73;;;12.30;96.80;;;11.27;48.79;98910.84;4948343;28;20152;-77
2022/04/08 09:59:31;;;;;;;9.88;1.50;;;12.30;98.00;;;11.28;49.52;98919.59;4947916;28;20087;-77
2022/04/08 10:02:04;;;;;;;13.32;2.13;;;12.30;96.70;;;11.21;48.53;98927.13;4942751;28;20149;-78
2022/04/08 10:04:32;;;;;;;10.02;2.00;;;12.30;96.60;;;11.10;48.35;98929.75;4941994;28;20123;-76
2022/04/08 10:07:03;;;;;;;14.95;1.98;;;12.20;97.30;;;10.95;48.81;98928.28;4947253;28;20554;-77
2022/04/08 10:09:40;;;;;;;25.52;1.75;;;12.10;96.50;;;10.64;48.95;98925.34;4946049;28;20026;-77
2022/04/08 10:12:45;;;;;;;10.45;1.80;;;11.90;98.20;;;10.55;50.80;98921.63;4959695;28;20038;-77
2022/04/08 10:15:36;;;;;;;14.90;1.55;;;11.70;96.60;;;10.53;49.69;98927.97;4975357;28;20038;-77
2022/04/08 10:18:06;;;;;;;14.02;2.00;;;11.80;97.00;;;10.67;49.38;98925.97;4961324;28;20057;-77
2022/04/08 10:20:42;;;;;;;13.77;1.67;;;12.00;98.20;;;10.72;49.75;98923.00;4950439;28;24798;-77
2022/04/08 10:23:11;;;;;;;9.43;1.70;;;11.70;97.10;;;10.49;49.31;98924.72;4955723;28;20036;-78
2022/04/08 10:25:50;;;;;;;12.25;1.88;;;11.60;96.50;;;10.40;49.00;98928.88;4952737;23;20277;-78
2022/04/08 10:28:16;;;;;;;11.55;2.03;;;11.70;99.20;;;10.83;51.55;98922.19;4958283;28;20019;-78
2022/04/08 10:30:54;;;;;;;10.38;1.70;;;11.90;98.00;;;11.18;49.63;98922.06;4970642;28;20037;-78